SBBV

Atlas Brasil Cantanhede Airport

Boa Vista, Brazil
TAF SBBV 261000Z 2612/2712 09010KT 9999 SCT017 TX33/2619Z TN25/2708Z BECMG 2613/2615 BKN035 BECMG 2617/2619 15005KT BKN040 FEW045TCU BECMG 2621 /2623 FEW040 BECMG 2705/2707 CAVOK BECMG 2709/2711 10010KT 9999 FEW005 RMK PDY
Issued Valid From Valid To
Apr-26 @ 10:00 UTC
(4 hours ago)
Apr-26 @ 12:00 UTC
(2 hours ago)
Apr-27 @ 12:00 UTC
(in 22 hours)
Expired Click to View Apr-26 @ 12:00 to Apr-26 @ 13:00
TAF SBBV 261000Z 2612/2712 09010KT 9999 SCT017 TX33/2619Z TN25/2708Z
Wind Visibility Clouds
90° at 10 knots 10,000+ meters
  • Scattered at 1,700' AGL
Becoming Apr-26 @ 12:00 to Apr-27 @ 05:00
Wind Visibility Clouds
150° at 5 knots 2,623 meters
  • Few at 4,000' AGL
Becoming Apr-26 @ 13:00 to Apr-26 @ 17:00
BECMG 2613/2615 BKN035
Wind Visibility Clouds
90° at 10 knots 10,000+ meters
  • Broken at 3,500' AGL
Becoming Apr-26 @ 17:00 to Apr-27 @ 12:00
BECMG 2617/2619 15005KT BKN040 FEW045TCU
Wind Visibility Clouds
150° at 5 knots 10,000+ meters
  • Broken at 4,000' AGL
  • Few at 4,500' AGL
Becoming Apr-27 @ 05:00 to Apr-27 @ 09:00
BECMG 2705/2707 CAVOK
Wind Visibility Clouds Conditions
150° at 5 knots 10,000+ meters
  • No significant clouds
Becoming Apr-27 @ 09:00 to Apr-27 @ 12:00
BECMG 2709/2711 10010KT 9999 FEW005 RMK PDY
Wind Visibility Clouds Conditions
100° at 10 knots 10,000+ meters
  • Few at 500' AGL
TAF SBBV 261000Z 2612/2712 09010KT 9999 SCT017 TX33/2619Z TN25/2708Z BECMG 2613/2615 BKN035 BECMG 2617/2619 15005KT BKN040 FEW045TCU BECMG 2621 /2623 FEW040 BECMG 2705/2707 CAVOK BECMG 2709/2711 10010KT 9999 FEW005 RMK PDY
Issued Apr-26 @ 10:00 UTC
(4 hours ago)
Valid From Apr-26 @ 12:00 UTC
(2 hours ago)
Valid To Apr-27 @ 12:00 UTC
(in 22 hours)
Apr-26 @ 12:00 - Apr-26 @ 13:00
Wind Visibility
90° at 10 knots 10,000+ meters
Clouds
  • Scattered at 1,700' AGL
Becoming Apr-26 @ 12:00 - Apr-27 @ 05:00
Wind Visibility
150° at 5 knots 2,623 meters
Clouds
  • Few at 4,000' AGL
Becoming Apr-26 @ 13:00 - Apr-26 @ 17:00
Wind Visibility
90° at 10 knots 10,000+ meters
Clouds
  • Broken at 3,500' AGL
Becoming Apr-26 @ 17:00 - Apr-27 @ 12:00
Wind Visibility
150° at 5 knots 10,000+ meters
Clouds
  • Broken at 4,000' AGL
  • Few at 4,500' AGL
Becoming Apr-27 @ 05:00 - Apr-27 @ 09:00
Wind Visibility
150° at 5 knots 10,000+ meters
Clouds
  • No significant clouds
Conditions
Becoming Apr-27 @ 09:00 - Apr-27 @ 12:00
Wind Visibility
100° at 10 knots 10,000+ meters
Clouds
  • Few at 500' AGL
Conditions